createdAt,value
2022-09-20T00:00:49.279Z,11.00
2022-09-20T00:03:17.750Z,11.00
2022-09-20T00:05:46.801Z,9.75
2022-09-20T00:08:15.956Z,10.00
2022-09-20T00:10:43.849Z,8.50
2022-09-20T00:13:13.862Z,10.00
2022-09-20T00:15:42.554Z,9.00
2022-09-20T00:18:10.550Z,8.50
2022-09-20T00:20:39.178Z,9.00
2022-09-20T00:23:07.353Z,6.25
2022-09-20T00:25:35.255Z,9.75
2022-09-20T00:28:03.599Z,8.50
2022-09-20T00:30:33.259Z,7.50
2022-09-20T00:33:01.397Z,7.25
2022-09-20T00:35:29.409Z,8.50
2022-09-20T00:37:57.274Z,9.00
2022-09-20T00:40:27.030Z,6.75
2022-09-20T00:42:55.319Z,8.50
2022-09-20T00:45:23.436Z,6.00
2022-09-20T00:47:54.438Z,7.50
2022-09-20T00:50:33.117Z,6.00
2022-09-20T00:53:03.468Z,7.00
2022-09-20T00:55:31.308Z,7.25
2022-09-20T00:57:59.216Z,6.00
2022-09-20T01:00:27.177Z,6.00
2022-09-20T01:02:58.524Z,4.25
2022-09-20T01:05:26.521Z,5.50
2022-09-20T01:07:54.594Z,7.00
2022-09-20T01:10:22.409Z,5.00
2022-09-20T01:12:50.860Z,7.25
2022-09-20T01:15:19.055Z,6.00
2022-09-20T01:17:48.442Z,4.75
2022-09-20T01:20:20.619Z,6.25
2022-09-20T01:23:05.943Z,6.00
2022-09-20T01:26:10.903Z,5.00
2022-09-20T01:28:42.123Z,5.50
2022-09-20T01:31:11.494Z,6.00
2022-09-20T01:33:41.650Z,5.75
2022-09-20T01:36:09.516Z,5.50
2022-09-20T01:38:41.072Z,5.00
2022-09-20T01:41:12.408Z,6.00
2022-09-20T01:43:43.936Z,5.00
2022-09-20T01:46:20.230Z,4.25
2022-09-20T01:48:48.137Z,4.00
2022-09-20T01:51:48.728Z,5.25
2022-09-20T01:54:45.740Z,5.00
2022-09-20T01:57:39.710Z,3.50
2022-09-20T02:00:12.701Z,5.75
2022-09-20T02:02:55.140Z,3.75
2022-09-20T02:05:58.494Z,3.25
2022-09-20T02:08:47.911Z,4.00
2022-09-20T02:11:16.343Z,4.00
2022-09-20T02:14:15.475Z,5.25
2022-09-20T02:16:50.680Z,3.75
2022-09-20T02:19:34.432Z,4.75
2022-09-20T02:22:31.337Z,4.00
2022-09-20T02:25:05.359Z,3.00
2022-09-20T02:27:37.222Z,3.75
2022-09-20T02:30:14.941Z,3.00
2022-09-20T02:33:12.544Z,4.00
2022-09-20T02:35:47.967Z,4.25
2022-09-20T02:38:24.536Z,4.00
2022-09-20T02:41:05.356Z,3.00
2022-09-20T02:43:36.256Z,3.00
2022-09-20T02:46:07.795Z,4.00
2022-09-20T02:48:39.484Z,3.50
2022-09-20T02:51:09.980Z,4.00
2022-09-20T02:53:41.120Z,3.00
2022-09-20T02:56:12.746Z,5.00
2022-09-20T02:58:46.454Z,4.00
2022-09-20T03:01:21.220Z,2.00
2022-09-20T03:03:55.371Z,3.25
2022-09-20T03:06:26.539Z,2.00
2022-09-20T03:08:57.363Z,3.00
2022-09-20T03:11:30.502Z,3.50
2022-09-20T03:14:11.181Z,3.50
2022-09-20T03:16:50.019Z,3.00
2022-09-20T03:19:27.668Z,4.50
2022-09-20T03:22:01.159Z,3.00
2022-09-20T03:24:34.508Z,2.25
2022-09-20T03:27:05.979Z,3.25
2022-09-20T03:29:41.252Z,3.00
2022-09-20T03:32:16.831Z,4.00
2022-09-20T03:34:52.343Z,5.00
2022-09-20T03:37:31.554Z,3.00
2022-09-20T03:40:22.760Z,3.00
2022-09-20T03:42:52.703Z,2.25
2022-09-20T03:45:30.504Z,2.25
2022-09-20T03:48:11.938Z,2.00
2022-09-20T03:50:50.521Z,3.00
2022-09-20T03:53:46.326Z,2.50
2022-09-20T03:56:21.567Z,3.00
2022-09-20T03:59:03.580Z,2.25
2022-09-20T04:01:47.439Z,2.00
2022-09-20T04:04:17.652Z,3.00
2022-09-20T04:06:58.324Z,3.00
2022-09-20T04:10:14.712Z,1.75
2022-09-20T04:12:47.172Z,2.00
2022-09-20T04:15:23.899Z,2.00
2022-09-20T04:17:55.764Z,2.25
2022-09-20T04:20:26.239Z,2.25
2022-09-20T04:22:55.993Z,2.75
2022-09-20T04:25:25.033Z,2.00
2022-09-20T04:27:55.799Z,3.25
2022-09-20T04:30:29.817Z,3.75
2022-09-20T04:33:00.457Z,3.00
2022-09-20T04:35:54.238Z,4.25
2022-09-20T04:38:25.822Z,4.25
2022-09-20T04:41:20.595Z,8.75
2022-09-20T04:44:28.876Z,10.00
2022-09-20T04:47:20.056Z,13.50
2022-09-20T04:50:30.371Z,14.50
2022-09-20T04:53:27.498Z,16.00
2022-09-20T04:55:57.526Z,15.00
2022-09-20T04:58:50.825Z,18.50
2022-09-20T05:02:05.487Z,14.50
2022-09-20T05:05:03.691Z,20.75
2022-09-20T05:08:16.386Z,26.75
2022-09-20T05:11:02.761Z,26.00
2022-09-20T05:13:39.490Z,20.50
2022-09-20T05:16:09.273Z,24.75
2022-09-20T05:18:51.965Z,27.25
2022-09-20T05:21:37.771Z,30.75
2022-09-20T05:24:14.570Z,23.75
2022-09-20T05:26:50.532Z,27.25
2022-09-20T05:29:21.164Z,31.75
2022-09-20T05:31:52.556Z,27.25
2022-09-20T05:34:26.669Z,28.25
2022-09-20T05:36:57.637Z,26.00
2022-09-20T05:39:34.865Z,22.50
2022-09-20T05:42:10.323Z,23.50
2022-09-20T05:44:58.881Z,23.75
2022-09-20T05:47:33.356Z,21.25
2022-09-20T05:50:05.723Z,23.25
2022-09-20T05:52:40.169Z,19.50
2022-09-20T05:55:29.613Z,19.25
2022-09-20T05:58:06.799Z,20.25
2022-09-20T06:00:36.732Z,19.25
2022-09-20T06:03:07.167Z,20.75
2022-09-20T06:05:40.983Z,22.00
2022-09-20T06:08:27.048Z,18.50
2022-09-20T06:11:16.034Z,18.50
2022-09-20T06:14:03.773Z,15.75
2022-09-20T06:16:38.121Z,14.00
2022-09-20T06:19:08.132Z,16.25
2022-09-20T06:21:42.652Z,18.00
2022-09-20T06:24:22.487Z,17.50
2022-09-20T06:26:50.491Z,16.50
2022-09-20T06:29:20.060Z,13.50
2022-09-20T06:31:49.044Z,18.25
2022-09-20T06:34:16.932Z,16.00
2022-09-20T06:37:04.029Z,15.50
2022-09-20T06:39:51.847Z,17.25
2022-09-20T06:42:21.095Z,14.00
2022-09-20T06:44:51.787Z,15.25
2022-09-20T06:47:19.783Z,12.75
2022-09-20T06:49:49.948Z,15.50
2022-09-20T06:52:19.056Z,12.75
2022-09-20T06:54:47.028Z,12.50
2022-09-20T06:57:16.229Z,12.50
2022-09-20T06:59:44.082Z,11.25
2022-09-20T07:02:13.628Z,10.25
2022-09-20T07:04:41.519Z,11.50
2022-09-20T07:07:10.002Z,11.00
2022-09-20T07:09:38.307Z,9.50
2022-09-20T07:12:12.104Z,10.25
2022-09-20T07:14:40.005Z,10.50
2022-09-20T07:17:07.878Z,11.50
2022-09-20T07:19:37.320Z,11.25
2022-09-20T07:22:05.628Z,9.25
2022-09-20T07:24:33.487Z,10.00
2022-09-20T07:27:02.310Z,9.75
2022-09-20T07:29:30.257Z,8.50
2022-09-20T07:31:58.727Z,10.50
2022-09-20T07:34:27.236Z,9.50
2022-09-20T07:36:57.305Z,10.00
2022-09-20T07:39:25.294Z,8.50
2022-09-20T07:41:53.210Z,9.25
2022-09-20T07:44:24.900Z,8.75
2022-09-20T07:46:53.195Z,10.25
2022-09-20T07:49:21.874Z,8.00
2022-09-20T07:51:50.096Z,8.75
2022-09-20T07:54:19.412Z,8.00
2022-09-20T07:56:47.533Z,8.00
2022-09-20T07:59:15.624Z,8.25
2022-09-20T08:01:43.915Z,8.25
2022-09-20T08:04:11.819Z,8.75
2022-09-20T08:06:40.265Z,7.25
2022-09-20T08:09:11.143Z,8.25
2022-09-20T08:11:42.100Z,6.00
2022-09-20T08:14:13.510Z,6.25
2022-09-20T08:16:42.801Z,7.00
2022-09-20T08:19:12.720Z,7.50
2022-09-20T08:21:41.026Z,7.50
2022-09-20T08:24:08.930Z,6.25
2022-09-20T08:26:37.121Z,6.50
2022-09-20T08:29:06.949Z,7.00
2022-09-20T08:31:36.984Z,7.25
2022-09-20T08:34:06.488Z,7.00
2022-09-20T08:36:36.742Z,5.50
2022-09-20T08:41:56.737Z,6.00
2022-09-20T08:44:28.317Z,5.50
2022-09-20T08:47:03.760Z,6.25
2022-09-20T08:49:31.638Z,6.25
2022-09-20T08:51:59.691Z,5.00
2022-09-20T08:54:32.287Z,6.00
2022-09-20T08:57:05.120Z,5.00
2022-09-20T08:59:35.092Z,6.00
2022-09-20T09:02:02.982Z,4.50
2022-09-20T09:04:35.636Z,5.75
2022-09-20T09:07:03.754Z,5.25
2022-09-20T09:09:37.489Z,4.25
2022-09-20T09:12:06.955Z,5.50
2022-09-20T09:14:55.007Z,5.00
2022-09-20T09:17:27.307Z,4.25
2022-09-20T09:19:56.298Z,4.50
2022-09-20T09:22:26.966Z,5.25
2022-09-20T09:25:23.059Z,5.25
2022-09-20T09:27:55.084Z,6.00
2022-09-20T09:30:26.285Z,4.50
2022-09-20T09:32:54.618Z,4.00
2022-09-20T09:35:26.164Z,3.75
2022-09-20T09:37:55.004Z,3.75
2022-09-20T09:40:23.471Z,5.00
2022-09-20T09:42:53.021Z,4.00
2022-09-20T09:45:32.433Z,5.50
2022-09-20T09:48:01.849Z,4.50
2022-09-20T09:50:31.555Z,3.75
2022-09-20T09:53:04.847Z,4.00
2022-09-20T09:55:52.626Z,3.75
2022-09-20T09:58:26.078Z,4.00
2022-09-20T10:00:55.393Z,3.50
2022-09-20T10:03:30.246Z,3.50
2022-09-20T10:06:08.180Z,3.25
2022-09-20T10:08:40.590Z,3.00
2022-09-20T10:11:15.361Z,4.00
2022-09-20T10:13:45.889Z,3.75
2022-09-20T10:16:18.847Z,3.00
2022-09-20T10:18:49.681Z,2.25
2022-09-20T10:21:28.538Z,4.50
2022-09-20T10:24:04.868Z,3.25
2022-09-20T10:26:58.528Z,3.25
2022-09-20T10:29:33.078Z,3.75
2022-09-20T10:32:07.172Z,2.25
2022-09-20T10:35:00.162Z,2.00
2022-09-20T10:37:32.197Z,3.00
2022-09-20T10:40:04.221Z,4.75
2022-09-20T10:42:53.458Z,2.75
2022-09-20T10:45:44.332Z,3.00
2022-09-20T10:48:18.430Z,3.00
2022-09-20T10:50:48.963Z,2.50
2022-09-20T10:53:30.064Z,3.00
2022-09-20T10:56:04.454Z,1.75
2022-09-20T10:58:56.093Z,2.75
2022-09-20T11:01:26.399Z,2.00
2022-09-20T11:04:07.754Z,1.75
2022-09-20T11:06:44.161Z,2.00
2022-09-20T11:09:14.382Z,2.25
2022-09-20T11:11:43.779Z,2.25
2022-09-20T11:14:13.442Z,2.00
2022-09-20T11:16:43.312Z,3.00
2022-09-20T11:19:17.531Z,2.00
2022-09-20T11:21:47.983Z,3.00
2022-09-20T11:24:19.047Z,2.75
2022-09-20T11:26:48.806Z,2.00
2022-09-20T11:29:21.942Z,2.00
2022-09-20T11:31:50.518Z,2.00
2022-09-20T11:34:22.158Z,2.00
2022-09-20T11:36:53.557Z,1.75
2022-09-20T11:39:23.465Z,2.00
2022-09-20T11:41:51.812Z,3.00
2022-09-20T11:44:19.987Z,2.00
2022-09-20T11:46:52.284Z,2.75
2022-09-20T11:49:23.746Z,2.00
2022-09-20T11:52:28.681Z,2.00
2022-09-20T11:55:10.476Z,2.00
2022-09-20T11:57:38.337Z,2.75
2022-09-20T12:00:10.134Z,2.00
2022-09-20T12:02:41.746Z,1.75
2022-09-20T12:05:27.466Z,1.75
2022-09-20T12:07:56.055Z,1.00
2022-09-20T12:10:26.120Z,2.00
2022-09-20T12:12:57.271Z,2.00
2022-09-20T12:15:26.788Z,1.00
2022-09-20T12:18:33.111Z,1.25
2022-09-20T12:21:07.615Z,1.00
2022-09-20T12:24:07.519Z,2.00
2022-09-20T12:26:40.592Z,2.00
2022-09-20T12:29:41.832Z,3.00
2022-09-20T12:32:56.345Z,2.00
2022-09-20T12:36:16.119Z,2.00
2022-09-20T12:38:52.573Z,3.50
2022-09-20T12:41:28.324Z,2.00
2022-09-20T12:44:02.329Z,2.00
2022-09-20T12:46:35.737Z,2.50
2022-09-20T12:49:41.144Z,1.00
2022-09-20T12:52:50.530Z,1.00
2022-09-20T12:55:40.794Z,1.00
2022-09-20T12:58:26.124Z,2.00
2022-09-20T13:01:27.434Z,2.00
2022-09-20T13:03:57.447Z,1.00
2022-09-20T13:06:26.252Z,1.00
2022-09-20T13:08:57.918Z,1.00
2022-09-20T13:11:27.401Z,1.00
2022-09-20T13:13:57.569Z,2.00
2022-09-20T13:16:28.875Z,0.25
2022-09-20T13:19:00.320Z,2.00
2022-09-20T13:21:28.321Z,1.00
2022-09-20T13:23:57.601Z,1.00
2022-09-20T13:26:28.585Z,1.00
2022-09-20T13:28:59.121Z,1.00
2022-09-20T13:31:28.893Z,1.00
2022-09-20T13:33:59.945Z,1.00
2022-09-20T13:36:29.165Z,1.50
2022-09-20T13:38:58.811Z,1.50
2022-09-20T13:41:29.155Z,2.00
2022-09-20T13:43:57.095Z,0.50
2022-09-20T13:46:25.870Z,1.00
2022-09-20T13:48:55.342Z,2.00
2022-09-20T13:51:25.725Z,1.00
2022-09-20T13:53:53.981Z,1.00
2022-09-20T13:56:24.806Z,1.00
2022-09-20T13:58:52.849Z,1.25
2022-09-20T14:01:24.196Z,1.00
2022-09-20T14:03:52.059Z,1.00
2022-09-20T14:06:21.743Z,0.75
2022-09-20T14:08:50.611Z,1.25
2022-09-20T14:11:20.147Z,1.00
2022-09-20T14:13:51.134Z,1.00
2022-09-20T14:16:19.147Z,1.00
2022-09-20T14:18:47.113Z,0.75
2022-09-20T14:21:15.638Z,0.25
2022-09-20T14:23:53.811Z,1.00
2022-09-20T14:26:26.766Z,1.00
2022-09-20T14:28:56.181Z,1.25
2022-09-20T14:31:26.128Z,0.00
2022-09-20T14:33:55.637Z,1.00
2022-09-20T14:36:24.770Z,1.00
2022-09-20T14:38:54.256Z,1.00
2022-09-20T14:41:29.765Z,0.00
2022-09-20T14:44:00.361Z,0.50
2022-09-20T14:46:33.908Z,1.00
2022-09-20T14:49:32.902Z,1.00
2022-09-20T14:52:37.248Z,1.00
2022-09-20T14:55:18.035Z,1.75
2022-09-20T14:57:46.838Z,1.00
2022-09-20T15:00:17.606Z,1.00
2022-09-20T15:02:45.996Z,0.50
2022-09-20T15:05:20.563Z,0.00
2022-09-20T15:07:48.559Z,1.00
2022-09-20T15:10:16.558Z,0.75
2022-09-20T15:12:44.726Z,1.00
2022-09-20T15:15:18.877Z,0.25
2022-09-20T15:17:47.157Z,0.75
2022-09-20T15:20:20.597Z,1.00
2022-09-20T15:22:51.468Z,1.00
2022-09-20T15:25:21.125Z,1.00
2022-09-20T15:27:49.403Z,1.00
2022-09-20T15:30:21.094Z,1.00
2022-09-20T15:32:49.037Z,1.25
2022-09-20T15:35:17.077Z,1.00
2022-09-20T15:37:45.358Z,1.50
2022-09-20T15:40:13.246Z,0.00
2022-09-20T15:42:41.790Z,0.00
2022-09-20T15:45:12.695Z,0.50
2022-09-20T15:47:41.980Z,1.00
2022-09-20T15:50:10.985Z,0.00
2022-09-20T15:52:40.690Z,0.75
2022-09-20T15:55:09.119Z,1.00
2022-09-20T15:57:37.092Z,1.00
2022-09-20T16:00:05.735Z,1.00
2022-09-20T16:02:34.097Z,1.50
2022-09-20T16:05:03.392Z,1.00
2022-09-20T16:07:31.304Z,1.00
2022-09-20T16:09:59.677Z,1.00
2022-09-20T16:12:27.915Z,2.00
2022-09-20T16:14:55.804Z,1.50
2022-09-20T16:17:43.719Z,1.00
2022-09-20T16:20:12.075Z,1.00
2022-09-20T16:22:40.377Z,2.00
2022-09-20T16:25:09.145Z,1.75
2022-09-20T16:27:36.989Z,1.00
2022-09-20T16:30:05.406Z,2.00
2022-09-20T16:32:34.147Z,1.25
2022-09-20T16:35:03.933Z,1.75
2022-09-20T16:37:33.194Z,2.00
2022-09-20T16:40:01.165Z,2.00
2022-09-20T16:42:29.426Z,1.75
2022-09-20T16:44:57.352Z,1.25
2022-09-20T16:47:26.238Z,1.00
2022-09-20T16:49:54.762Z,1.50
2022-09-20T16:52:22.768Z,3.00
2022-09-20T16:54:51.996Z,1.50
2022-09-20T16:57:20.138Z,2.00
2022-09-20T16:59:47.979Z,2.25
2022-09-20T17:02:15.830Z,2.00
2022-09-20T17:04:43.779Z,1.50
2022-09-20T17:07:11.772Z,2.00
2022-09-20T17:09:39.843Z,2.00
2022-09-20T17:12:09.848Z,1.75
2022-09-20T17:14:38.195Z,3.00
2022-09-20T17:17:06.474Z,1.00
2022-09-20T17:19:35.002Z,1.25
2022-09-20T17:22:03.153Z,1.75
2022-09-20T17:24:31.209Z,1.50
2022-09-20T17:26:59.172Z,1.50
2022-09-20T17:29:28.436Z,1.00
2022-09-20T17:31:59.611Z,1.00
2022-09-20T17:34:29.418Z,2.00
2022-09-20T17:36:57.299Z,1.00
2022-09-20T17:39:25.242Z,2.00
2022-09-20T17:41:53.132Z,2.25
2022-09-20T17:44:21.100Z,1.00
2022-09-20T17:46:50.808Z,1.50
2022-09-20T17:49:19.456Z,1.00
2022-09-20T17:51:48.367Z,1.00
2022-09-20T17:54:16.258Z,1.00
2022-09-20T17:56:44.917Z,0.50
2022-09-20T17:59:13.044Z,2.00
2022-09-20T18:01:41.783Z,1.00
2022-09-20T18:04:11.284Z,1.25
2022-09-20T18:06:42.119Z,2.00
2022-09-20T18:09:10.531Z,1.00
2022-09-20T18:11:40.403Z,2.00
2022-09-20T18:14:10.301Z,0.75
2022-09-20T18:16:39.305Z,1.00
2022-09-20T18:19:07.407Z,1.00
2022-09-20T18:21:37.110Z,1.50
2022-09-20T18:24:06.620Z,1.25
2022-09-20T18:26:34.552Z,1.25
2022-09-20T18:29:03.058Z,1.00
2022-09-20T18:31:32.375Z,1.00
2022-09-20T18:34:01.154Z,1.25
2022-09-20T18:36:29.293Z,2.00
2022-09-20T18:38:59.336Z,1.25
2022-09-20T18:41:27.933Z,1.25
2022-09-20T18:43:56.814Z,1.00
2022-09-20T18:46:26.630Z,1.50
2022-09-20T18:48:54.848Z,1.00
2022-09-20T18:51:24.273Z,1.00
2022-09-20T18:53:52.515Z,1.00
2022-09-20T18:56:23.947Z,1.00
2022-09-20T18:58:52.395Z,2.00
2022-09-20T19:01:43.270Z,1.00
2022-09-20T19:04:22.248Z,2.00
2022-09-20T19:06:52.628Z,1.00
2022-09-20T19:09:23.596Z,1.25
2022-09-20T19:11:55.353Z,2.00
2022-09-20T19:14:25.612Z,1.25
2022-09-20T19:16:55.933Z,1.00
2022-09-20T19:19:34.734Z,2.00
2022-09-20T19:22:06.109Z,0.25
2022-09-20T19:25:03.331Z,1.00
2022-09-20T19:27:33.404Z,1.00
2022-09-20T19:30:01.770Z,2.00
2022-09-20T19:32:30.542Z,1.00
2022-09-20T19:35:01.562Z,1.75
2022-09-20T19:37:33.831Z,2.00
2022-09-20T19:40:21.195Z,1.00
2022-09-20T19:42:56.568Z,1.75
2022-09-20T19:45:29.312Z,1.00
2022-09-20T19:48:02.421Z,1.00
2022-09-20T19:50:33.276Z,0.00
2022-09-20T19:53:04.013Z,2.00
2022-09-20T19:55:32.703Z,2.00
2022-09-20T19:58:02.573Z,1.00
2022-09-20T20:00:31.419Z,1.50
2022-09-20T20:03:00.207Z,2.00
2022-09-20T20:05:29.217Z,2.00
2022-09-20T20:08:07.049Z,2.00
2022-09-20T20:10:37.795Z,2.00
2022-09-20T20:13:30.498Z,2.00
2022-09-20T20:15:59.915Z,2.00
2022-09-20T20:18:30.081Z,2.25
2022-09-20T20:20:58.055Z,3.00
2022-09-20T20:23:47.800Z,2.00
2022-09-20T20:26:19.691Z,2.00
2022-09-20T20:28:48.971Z,3.00
2022-09-20T20:31:16.897Z,2.75
2022-09-20T20:33:45.064Z,2.75
2022-09-20T20:36:12.969Z,3.00
2022-09-20T20:38:40.832Z,2.00
2022-09-20T20:41:09.696Z,3.50
2022-09-20T20:43:39.604Z,3.75
2022-09-20T20:46:09.593Z,3.00
2022-09-20T20:48:37.565Z,3.50
2022-09-20T20:51:06.501Z,3.75
2022-09-20T20:53:35.469Z,3.00
2022-09-20T20:56:05.098Z,3.75
2022-09-20T20:58:33.533Z,4.00
2022-09-20T21:01:13.692Z,2.75
2022-09-20T21:03:42.827Z,3.25
2022-09-20T21:06:11.287Z,3.75
2022-09-20T21:08:39.888Z,2.75
2022-09-20T21:11:08.563Z,3.25
2022-09-20T21:13:36.730Z,2.50
2022-09-20T21:16:06.299Z,2.75
2022-09-20T21:18:35.802Z,3.25
2022-09-20T21:21:03.828Z,3.00
2022-09-20T21:23:34.851Z,3.75
2022-09-20T21:26:08.470Z,3.00
2022-09-20T21:28:37.594Z,3.00
2022-09-20T21:31:06.358Z,4.00
2022-09-20T21:33:37.013Z,3.25
2022-09-20T21:36:05.753Z,3.50
2022-09-20T21:38:34.584Z,3.00
2022-09-20T21:41:04.050Z,3.00
2022-09-20T21:43:32.051Z,4.00
2022-09-20T21:46:00.049Z,3.75
2022-09-20T21:48:28.307Z,4.00
2022-09-20T21:51:03.255Z,5.00
2022-09-20T21:53:31.174Z,3.00
2022-09-20T21:55:59.435Z,4.75
2022-09-20T21:58:27.430Z,4.75
2022-09-20T22:01:02.195Z,2.25
2022-09-20T22:03:34.620Z,4.50
2022-09-20T22:06:11.611Z,4.25
2022-09-20T22:08:39.916Z,3.00
2022-09-20T22:11:11.170Z,5.00
2022-09-20T22:13:42.988Z,4.00
2022-09-20T22:16:11.836Z,4.00
2022-09-20T22:18:40.239Z,4.00
2022-09-20T22:21:10.990Z,3.00
2022-09-20T22:23:39.215Z,5.50
2022-09-20T22:26:08.142Z,4.75
2022-09-20T22:28:36.045Z,4.00
2022-09-20T22:31:05.354Z,5.00
2022-09-20T22:33:33.738Z,3.25
2022-09-20T22:36:02.108Z,4.25
2022-09-20T22:38:32.076Z,5.00
2022-09-20T22:41:00.042Z,4.50
2022-09-20T22:43:28.256Z,3.75
2022-09-20T22:46:02.270Z,4.00
2022-09-20T22:48:30.456Z,5.75
2022-09-20T22:51:00.708Z,4.25
2022-09-20T22:53:31.168Z,4.00
2022-09-20T22:56:08.771Z,4.50
2022-09-20T22:58:37.469Z,4.00
2022-09-20T23:01:09.755Z,5.50
2022-09-20T23:03:38.053Z,4.00
2022-09-20T23:06:06.303Z,5.00
2022-09-20T23:08:35.566Z,5.00
2022-09-20T23:11:03.885Z,5.00
2022-09-20T23:13:32.122Z,6.00
2022-09-20T23:16:00.004Z,4.75
2022-09-20T23:18:27.974Z,5.25
2022-09-20T23:21:00.295Z,4.00
2022-09-20T23:23:28.278Z,5.25
2022-09-20T23:25:57.640Z,4.00
2022-09-20T23:28:27.257Z,4.75
2022-09-20T23:30:55.298Z,6.50
2022-09-20T23:33:23.668Z,5.00
2022-09-20T23:35:51.571Z,6.50
2022-09-20T23:38:19.429Z,4.50
2022-09-20T23:40:47.284Z,5.00
2022-09-20T23:43:16.824Z,4.25
2022-09-20T23:45:44.761Z,5.00
2022-09-20T23:48:12.653Z,5.75
2022-09-20T23:50:40.498Z,5.00
2022-09-20T23:53:08.670Z,5.00
2022-09-20T23:55:36.530Z,7.25
2022-09-20T23:58:04.426Z,5.75
